ADDS METAR Data INFO
IDs: Format: Raw Decoded Include TAF

Data at: 1533 UTC 18 Jun 2018

KCKV 181452Z AUTO 26006KT 10SM CLR 29/21 A3015 RMK AO2 SLP203 T02890211 50007
KCKV 181352Z AUTO 22007KT 10SM CLR 27/21 A3015 RMK AO2 SLP205 T02720206
KCKV 181252Z AUTO 21005KT 10SM CLR 25/20 A3015 RMK AO2 SLP202 T02500200
KCKV 181152Z AUTO 18004KT 10SM CLR 23/19 A3013 RMK AO2 SLP197 T02280194 10244 20206 53009
KCKV 181052Z AUTO 17003KT 10SM CLR 21/19 A3012 RMK AO2 SLP193 T02110189
KCKV 180952Z AUTO 00000KT 10SM CLR 21/19 A3011 RMK AO2 SLP189 T02110189
KCKV 180852Z AUTO 00000KT 10SM CLR 23/19 A3010 RMK AO2 SLP187 T02280189 53002
KCKV 180752Z AUTO 22004KT 10SM CLR 23/18 A3009 RMK AO2 SLP182 T02280183
KCKV 180652Z AUTO 00000KT 10SM CLR 23/18 A3010 RMK AO2 SLP185 T02280183
KCKV 180552Z AUTO 00000KT 10SM CLR 24/18 A3010 RMK AO2 SLP185 T02390183 10322 20239 403440206 55002
KCKV 180452Z AUTO 00000KT 10SM CLR 26/19 A3009 RMK AO2 SLP183 T02560194
KCKV 180352Z AUTO 23003KT 10SM CLR 26/20 A3009 RMK AO2 SLP182 T02610200
KCKV 180252Z AUTO 21013G18KT 10SM CLR 28/22 A3011 RMK AO2 SLP187 T02780217 53019
KCKV 180152Z AUTO 19004KT 10SM CLR 27/21 A3007 RMK AO2 SLP176 T02720211
KCKV 180052Z AUTO 17006KT 10SM CLR 30/22 A3006 RMK AO2 SLP174 T03000222
KCKV 172352Z AUTO 18004KT 10SM CLR 32/21 A3005 RMK AO2 SLP168 T03220211 10344 20322 55004
KCKV 172252Z AUTO 19003KT 10SM CLR 33/20 A3005 RMK AO2 SLP168 T03280200
KCKV 172152Z AUTO 13006KT 10SM FEW050 33/21 A3006 RMK AO2 SLP173 T03280211
KCKV 172052Z AUTO VRB04KT 10SM CLR 33/18 A3006 RMK AO2 SLP173 T03330183 56014
KCKV 171952Z AUTO 16004G15KT 10SM CLR 33/18 A3007 RMK AO2 LTG DSNT E AND SE SLP177 T03330183
KCKV 171852Z AUTO 24006KT 10SM CLR 33/19 A3009 RMK AO2 LTG DSNT NW SLP182 T03330189
KCKV 171752Z AUTO VRB03KT 10SM SCT044 33/20 A3010 RMK AO2 SLP186 T03330200 10333 20233 58003
KCKV 171652Z AUTO 20006KT 10SM CLR 32/21 A3011 RMK AO2 SLP190 T03170211
KCKV 171552Z AUTO 15005KT 10SM CLR 31/22 A3012 RMK AO2 SLP192 T03110217
KCKV 171452Z AUTO VRB04KT 10SM CLR 29/22 A3011 RMK AO2 SLP190 T02940222 51003
KCKV 171352Z AUTO 21004KT 10SM CLR 28/22 A3011 RMK AO2 SLP190 T02780217
KCKV 171252Z AUTO 15004KT 8SM CLR 26/22 A3012 RMK AO2 SLP192 T02560222
KCKV 171152Z AUTO 00000KT 7SM CLR 24/21 A3010 RMK AO2 SLP187 70001 T02390211 10239 20206 51025
KCKV 171052Z AUTO 00000KT 4SM BR CLR 21/19 A3008 RMK AO2 SLP182 T02110194
KCKV 170952Z AUTO 00000KT 6SM BR CLR 22/19 A3006 RMK AO2 SLP172 T02170194
KCKV 170852Z AUTO 14003KT 7SM CLR 21/19 A3003 RMK AO2 SLP161 T02110194 55007
KCKV 170752Z AUTO 06003KT 7SM CLR 22/20 A3002 RMK AO2 SLP157 T02220200
KCKV 170652Z AUTO 14003KT 8SM CLR 22/20 A3003 RMK AO2 SLP163 T02170200
KCKV 170552Z AUTO 00000KT 8SM CLR 23/20 A3005 RMK AO2 SLP168 T02280200 10278 20222 403440211 50003
KCKV 170452Z AUTO 00000KT 10SM CLR 23/21 A3005 RMK AO2 SLP170 T02330206
KCKV 170352Z AUTO 00000KT 10SM CLR 23/20 A3005 RMK AO2 SLP169 T02330200